Time;durP1;ratioP1;P1;durP2;ratioP2;P2;SDS_P1;SDS_P2;PMS_P1;PMS_P2;Temp;Humidity;BMP_temperature;BMP_pressure;BME280_temperature;BME280_humidity;BME280_pressure;Samples;Min_cycle;Max_cycle;Signal;HPM_P1;HPM_P2
2023/01/13 00:04:34;;;;;;;1.57;0.13;;;;;;;10.47;80.46;99350.34;10480873;28;20608;-82
2023/01/13 00:09:36;;;;;;;1.87;0.10;;;;;;;10.34;80.19;99359.84;10471042;28;20283;-82
2023/01/13 00:14:38;;;;;;;0.10;0.10;;;;;;;9.78;83.35;99356.28;10433419;28;20794;-82
2023/01/13 00:19:41;;;;;;;0.43;0.10;;;;;;;9.52;84.71;99344.34;10496949;28;20600;-81
2023/01/13 00:24:43;;;;;;;0.10;0.10;;;;;;;10.04;82.84;99344.16;10497341;28;20579;-81
2023/01/13 00:29:45;;;;;;;2.47;0.10;;;;;;;9.56;81.53;99342.50;10495787;28;20268;-81
2023/01/13 00:34:47;;;;;;;0.10;0.10;;;;;;;10.07;79.20;99337.88;10479884;28;20501;-81
2023/01/13 00:39:53;;;;;;;0.30;0.10;;;;;;;10.38;76.85;99329.97;10496863;28;20199;-82
2023/01/13 00:44:55;;;;;;;1.97;0.10;;;;;;;10.22;75.92;99338.13;10457295;28;20246;-80
2023/01/13 00:49:57;;;;;;;2.40;0.20;;;;;;;10.11;74.06;99347.25;10481540;28;20219;-82
2023/01/13 00:55:00;;;;;;;2.43;0.53;;;;;;;10.21;72.99;99344.88;10476666;28;20200;-81
2023/01/13 01:00:03;;;;;;;1.53;0.63;;;;;;;10.32;72.22;99348.13;10457631;28;20218;-82
2023/01/13 01:05:06;;;;;;;1.50;0.20;;;;;;;9.74;74.08;99376.88;10494892;28;20191;-82
2023/01/13 01:10:09;;;;;;;2.37;0.20;;;;;;;10.07;73.68;99351.88;10493687;28;20228;-81
2023/01/13 01:15:11;;;;;;;4.43;0.63;;;;;;;9.87;74.21;99345.88;10494531;28;20280;-82
2023/01/13 01:20:13;;;;;;;3.07;0.40;;;;;;;10.15;69.95;99360.25;10481875;28;20191;-80
2023/01/13 01:25:16;;;;;;;2.53;0.40;;;;;;;9.43;71.61;99349.94;10438198;28;20581;-81
2023/01/13 01:30:18;;;;;;;3.33;0.77;;;;;;;9.75;70.10;99356.13;10466532;28;20296;-81
2023/01/13 01:35:20;;;;;;;3.60;0.30;;;;;;;9.64;70.40;99353.69;10495958;28;20219;-81
2023/01/13 01:40:22;;;;;;;3.50;0.60;;;;;;;9.91;68.20;99332.84;10487028;28;20203;-81
2023/01/13 01:45:27;;;;;;;3.37;0.90;;;;;;;10.46;67.55;99359.94;10449594;28;20229;-81
2023/01/13 01:50:29;;;;;;;7.63;0.90;;;;;;;9.73;68.62;99364.84;10442783;28;20246;-80
2023/01/13 01:55:34;;;;;;;5.33;0.67;;;;;;;9.68;69.95;99383.81;10492941;28;20203;-81
2023/01/13 02:00:36;;;;;;;4.03;0.60;;;;;;;9.59;69.50;99367.84;10492591;28;20576;-80
2023/01/13 02:05:38;;;;;;;3.20;0.60;;;;;;;9.95;68.11;99352.59;10476565;28;20218;-81
2023/01/13 02:10:41;;;;;;;6.57;0.63;;;;;;;9.66;68.58;99364.56;10451916;28;20243;-81
2023/01/13 02:16:11;;;;;;;5.27;0.70;;;;;;;10.28;66.38;99352.78;10451889;28;20543;-82
2023/01/13 02:21:22;;;;;;;5.83;0.90;;;;;;;9.25;68.71;99357.50;10443677;28;20199;-82
2023/01/13 02:27:02;;;;;;;6.47;1.60;;;;;;;9.83;67.56;99363.66;10493526;28;20226;-82
2023/01/13 02:32:15;;;;;;;7.63;1.03;;;;;;;9.87;67.46;99365.47;10469741;28;20316;-82
2023/01/13 02:37:27;;;;;;;5.27;0.87;;;;;;;9.91;68.80;99372.06;10492023;28;20260;-82
2023/01/13 02:47:55;;;;;;;4.87;0.90;;;;;;;10.00;65.92;99375.66;10491275;28;20256;-82
2023/01/13 02:53:01;;;;;;;5.00;1.07;;;;;;;9.43;67.25;99363.09;10493498;28;20296;-82
2023/01/13 02:58:05;;;;;;;5.90;1.27;;;;;;;9.49;66.03;99364.59;10492230;28;20191;-83
2023/01/13 03:03:07;;;;;;;4.03;0.83;;;;;;;9.57;66.25;99369.34;10461251;28;20195;-81
2023/01/13 03:08:17;;;;;;;8.63;0.83;;;;;;;9.55;66.08;99363.25;10482889;28;20237;-81
2023/01/13 03:13:29;;;;;;;4.57;0.77;;;;;;;9.47;65.08;99358.50;10479296;28;20210;-81
2023/01/13 03:18:41;;;;;;;1.93;0.60;;;;;;;9.19;62.89;99367.22;10486547;28;20195;-80
2023/01/13 03:24:04;;;;;;;3.20;0.33;;;;;;;8.67;63.94;99360.75;10473795;28;20333;-82
2023/01/13 03:29:17;;;;;;;2.00;0.40;;;;;;;8.83;60.88;99358.31;10461343;28;20608;-81
2023/01/13 03:34:21;;;;;;;3.60;0.30;;;;;;;8.64;61.63;99360.59;10480940;28;20721;-81
2023/01/13 03:39:32;;;;;;;5.37;0.60;;;;;;;8.12;62.61;99354.81;10497648;28;20195;-81
2023/01/13 03:44:53;;;;;;;5.80;0.80;;;;;;;8.72;60.61;99352.22;10476047;28;20199;-80
2023/01/13 03:50:00;;;;;;;5.20;0.87;;;;;;;8.54;60.57;99361.72;10473956;28;20195;-81
2023/01/13 03:55:08;;;;;;;7.57;0.93;;;;;;;8.89;60.13;99354.22;10481558;28;20247;-82
2023/01/13 04:00:12;;;;;;;6.03;0.87;;;;;;;9.04;59.50;99352.91;10483254;28;20249;-82
2023/01/13 04:05:16;;;;;;;4.13;0.63;;;;;;;8.21;62.52;99364.94;10473610;28;20218;-80
2023/01/13 04:10:30;;;;;;;6.47;0.87;;;;;;;8.35;62.33;99364.81;10475764;28;20277;-82
2023/01/13 04:15:38;;;;;;;6.53;0.93;;;;;;;8.02;62.91;99349.53;10474939;28;20223;-82
2023/01/13 04:20:42;;;;;;;4.30;0.80;;;;;;;7.89;65.10;99357.69;10459104;28;20224;-81
2023/01/13 04:25:45;;;;;;;7.57;0.90;;;;;;;8.22;62.96;99360.19;10471570;28;20195;-82
2023/01/13 04:30:48;;;;;;;5.53;0.83;;;;;;;8.74;61.11;99349.13;10490725;28;20488;-81
2023/01/13 04:35:51;;;;;;;12.80;1.20;;;;;;;8.20;62.60;99345.72;10454567;28;20235;-81
2023/01/13 04:40:53;;;;;;;7.47;0.90;;;;;;;8.48;62.48;99352.69;10474053;28;20477;-82
2023/01/13 04:45:55;;;;;;;4.47;0.57;;;;;;;8.18;63.07;99340.44;10486982;28;20260;-81
2023/01/13 04:50:58;;;;;;;5.27;1.10;;;;;;;8.40;62.43;99356.28;10496609;28;20595;-82
2023/01/13 04:56:00;;;;;;;6.00;1.10;;;;;;;8.43;62.98;99336.06;10476563;28;20260;-81
2023/01/13 05:01:02;;;;;;;5.60;1.00;;;;;;;7.94;64.86;99336.38;10484506;28;20292;-82
2023/01/13 05:06:04;;;;;;;6.00;1.13;;;;;;;8.39;62.77;99343.44;10456328;28;20560;-82
2023/01/13 05:16:58;;;;;;;5.47;1.23;;;;;;;8.28;63.70;99336.50;10440808;28;20205;-81
2023/01/13 05:27:10;;;;;;;8.27;1.40;;;;;;;8.38;64.34;99352.16;10466719;28;20669;-82
2023/01/13 05:32:12;;;;;;;8.97;1.70;;;;;;;8.15;65.45;99348.63;10490957;28;20212;-82
2023/01/13 05:37:15;;;;;;;9.00;1.57;;;;;;;8.46;63.45;99349.41;10482318;28;20238;-82
2023/01/13 05:47:37;;;;;;;8.80;1.37;;;;;;;8.84;62.40;99360.81;10460745;28;20188;-82
2023/01/13 05:52:40;;;;;;;9.73;1.53;;;;;;;8.78;62.01;99355.69;10472387;28;20211;-83
2023/01/13 05:57:42;;;;;;;12.63;1.57;;;;;;;8.11;63.22;99347.63;10485109;28;20195;-82
2023/01/13 06:02:44;;;;;;;7.10;1.10;;;;;;;7.62;65.67;99369.06;10496822;28;20199;-82
2023/01/13 06:07:46;;;;;;;6.90;0.83;;;;;;;7.71;64.45;99367.16;10466096;28;20199;-81
2023/01/13 06:12:48;;;;;;;6.87;1.33;;;;;;;8.46;62.07;99360.56;10501216;28;20203;-82
2023/01/13 06:17:50;;;;;;;7.97;1.30;;;;;;;8.12;64.49;99366.00;10501214;28;20195;-82
2023/01/13 06:22:53;;;;;;;4.87;1.03;;;;;;;8.82;62.49;99362.28;10464896;28;20247;-81
2023/01/13 06:27:56;;;;;;;10.23;1.43;;;;;;;8.37;63.19;99384.84;10462494;28;20191;-82
2023/01/13 06:33:00;;;;;;;5.00;1.30;;;;;;;8.62;62.89;99362.91;10478250;28;20250;-81
2023/01/13 06:38:04;;;;;;;5.57;1.07;;;;;;;8.39;63.65;99376.97;10476545;28;20281;-81
2023/01/13 06:43:15;;;;;;;5.73;1.20;;;;;;;7.97;63.77;99364.50;10481133;28;20196;-82
2023/01/13 06:48:31;;;;;;;7.70;1.10;;;;;;;8.50;62.92;99372.72;10473135;28;20196;-81
2023/01/13 06:53:34;;;;;;;6.83;1.40;;;;;;;7.87;63.87;99373.13;10483150;28;20260;-82
2023/01/13 06:58:36;;;;;;;5.77;0.93;;;;;;;8.01;63.66;99381.41;10493221;28;20191;-82
2023/01/13 07:03:39;;;;;;;7.17;0.93;;;;;;;8.12;61.81;99379.97;10484934;28;20244;-82
2023/01/13 07:08:41;;;;;;;7.03;1.57;;;;;;;7.65;62.89;99385.16;10480958;28;20195;-82
2023/01/13 07:19:04;;;;;;;5.83;1.27;;;;;;;7.75;63.35;99396.06;10505655;28;20540;-82
2023/01/13 07:24:06;;;;;;;10.13;1.53;;;;;;;7.99;62.02;99406.03;10500223;28;20214;-82
2023/01/13 07:29:08;;;;;;;7.83;1.33;;;;;;;8.52;59.94;99406.78;10488722;28;20226;-80
2023/01/13 07:34:10;;;;;;;13.27;1.57;;;;;;;7.57;62.88;99411.06;10487070;28;20246;-81
2023/01/13 07:39:12;;;;;;;5.77;0.83;;;;;;;8.41;60.81;99408.22;10497289;28;20351;-81
2023/01/13 07:44:14;;;;;;;6.13;0.87;;;;;;;8.13;61.63;99402.00;10503953;28;20195;-80
2023/01/13 07:49:16;;;;;;;5.83;0.97;;;;;;;7.83;62.88;99414.84;10488775;28;20243;-81
2023/01/13 07:54:19;;;;;;;6.23;0.73;;;;;;;8.32;61.79;99407.38;10468184;28;20623;-81
2023/01/13 07:59:32;;;;;;;7.00;1.00;;;;;;;8.11;62.71;99420.25;10445633;28;20488;-82
2023/01/13 08:04:34;;;;;;;11.63;1.20;;;;;;;8.42;61.68;99423.84;10486687;28;20195;-82
2023/01/13 08:09:36;;;;;;;6.13;1.30;;;;;;;7.94;62.32;99412.59;10497388;28;20245;-81
2023/01/13 08:14:39;;;;;;;5.00;1.03;;;;;;;7.82;61.78;99441.09;10476456;28;20238;-81
2023/01/13 08:19:41;;;;;;;9.27;1.00;;;;;;;8.18;60.42;99434.59;10507039;28;20199;-81
2023/01/13 08:24:43;;;;;;;11.63;1.37;;;;;;;7.89;62.11;99449.84;10499338;28;20661;-82
2023/01/13 08:29:45;;;;;;;8.80;1.10;;;;;;;8.29;59.32;99449.91;10495183;28;20199;-81
2023/01/13 08:34:47;;;;;;;8.60;1.70;;;;;;;8.39;59.71;99468.38;10484316;28;20616;-81
2023/01/13 08:39:49;;;;;;;8.17;1.33;;;;;;;7.70;61.53;99454.81;10489985;28;20199;-81
2023/01/13 08:44:52;;;;;;;10.33;2.00;;;;;;;8.43;58.25;99466.59;10503994;28;20199;-82
2023/01/13 08:49:54;;;;;;;9.97;1.90;;;;;;;8.17;59.61;99470.06;10488998;28;20199;-82
2023/01/13 08:54:56;;;;;;;12.53;1.73;;;;;;;8.49;58.56;99462.50;10472839;28;20227;-82
2023/01/13 08:59:58;;;;;;;6.50;1.17;;;;;;;7.92;60.86;99489.44;10484861;28;20256;-81
2023/01/13 09:05:02;;;;;;;6.70;1.23;;;;;;;7.97;59.71;99481.78;10474928;28;20226;-82
2023/01/13 09:10:05;;;;;;;7.67;1.43;;;;;;;8.16;59.29;99492.75;10475609;28;20256;-81
2023/01/13 09:15:08;;;;;;;11.00;1.63;;;;;;;8.26;59.69;99491.63;10464597;28;20300;-81
2023/01/13 09:20:11;;;;;;;4.67;0.90;;;;;;;7.78;60.75;99504.28;10492816;28;20195;-82
2023/01/13 09:25:13;;;;;;;10.47;1.03;;;;;;;8.37;58.50;99488.25;10480447;28;20191;-81
2023/01/13 09:30:15;;;;;;;11.00;1.47;;;;;;;8.18;59.65;99476.50;10487420;28;20257;-82
2023/01/13 09:35:18;;;;;;;5.23;0.93;;;;;;;8.11;60.28;99492.88;10488762;28;20582;-82
2023/01/13 09:40:22;;;;;;;12.47;1.57;;;;;;;8.42;59.47;99488.13;10499280;28;20225;-82
2023/01/13 09:45:28;;;;;;;7.90;0.87;;;;;;;7.92;61.40;99495.03;10497634;28;20195;-81
2023/01/13 09:50:37;;;;;;;9.37;1.30;;;;;;;8.61;58.47;99506.63;10476233;28;20221;-82
2023/01/13 09:55:39;;;;;;;14.80;2.40;;;;;;;8.77;59.63;99500.25;10495916;28;20211;-81
2023/01/13 10:01:15;;;;;;;9.57;2.30;;;;;;;8.27;60.33;99510.06;10494057;28;20200;-82
2023/01/13 10:06:34;;;;;;;9.47;1.40;;;;;;;8.64;58.51;99494.78;10478161;28;20264;-82
2023/01/13 10:17:16;;;;;;;11.33;2.37;;;;;;;8.22;59.95;99494.28;10495475;28;20684;-81
2023/01/13 10:22:21;;;;;;;7.60;1.43;;;;;;;8.81;58.38;99506.84;10473435;28;20253;-81
2023/01/13 10:27:31;;;;;;;10.50;1.97;;;;;;;7.60;60.93;99510.03;10481242;28;20235;-81
2023/01/13 10:32:33;;;;;;;15.83;2.40;;;;;;;7.86;60.76;99516.66;10488228;28;20254;-81
2023/01/13 10:37:35;;;;;;;11.83;2.47;;;;;;;8.54;58.64;99524.66;10479649;28;20265;-82
2023/01/13 10:42:37;;;;;;;12.90;2.87;;;;;;;8.35;59.83;99507.31;10473369;28;20191;-82
2023/01/13 10:47:39;;;;;;;11.33;1.87;;;;;;;8.14;58.90;99511.75;10472999;28;20196;-82
2023/01/13 10:53:23;;;;;;;13.67;2.30;;;;;;;8.12;58.44;99494.47;10457591;28;20208;-82
2023/01/13 10:58:26;;;;;;;10.30;1.93;;;;;;;8.66;57.68;99489.69;10482705;28;20275;-82
2023/01/13 11:03:39;;;;;;;12.97;2.43;;;;;;;8.53;58.47;99509.03;10491643;28;20187;-82
2023/01/13 11:08:44;;;;;;;14.03;2.23;;;;;;;8.90;56.57;99492.88;10466778;28;20203;-82
2023/01/13 11:19:14;;;;;;;13.23;1.77;;;;;;;9.32;55.55;99517.34;10478441;28;20411;-82
2023/01/13 11:24:36;;;;;;;11.20;2.40;;;;;;;8.96;55.72;99513.97;10499062;28;20472;-82
2023/01/13 11:29:50;;;;;;;11.80;1.83;;;;;;;8.89;56.72;99520.03;10499739;28;20187;-82
2023/01/13 11:35:02;;;;;;;13.93;2.40;;;;;;;8.98;55.97;99522.88;10479561;28;20289;-83
2023/01/13 11:40:15;;;;;;;7.23;1.57;;;;;;;9.61;54.65;99515.91;10499348;28;20202;-83
2023/01/13 11:45:36;;;;;;;9.67;1.63;;;;;;;9.50;53.96;99542.59;10499331;28;20188;-82
2023/01/13 11:50:50;;;;;;;10.33;1.47;;;;;;;8.95;62.65;99562.66;10498996;28;20213;-83
2023/01/13 11:56:13;;;;;;;11.67;2.20;;;;;;;7.76;69.07;99554.03;10473302;28;20220;-84
2023/01/13 12:01:20;;;;;;;10.73;1.67;;;;;;;8.03;70.06;99558.69;10479672;28;20214;-82
2023/01/13 12:06:36;;;;;;;8.23;1.93;;;;;;;8.12;71.66;99544.75;10480910;28;20196;-83
2023/01/13 12:17:39;;;;;;;9.57;2.10;;;;;;;7.95;69.82;99539.06;10477840;28;20215;-82
2023/01/13 12:22:44;;;;;;;12.33;2.17;;;;;;;7.84;68.99;99532.94;10472219;28;20233;-82
2023/01/13 12:27:54;;;;;;;12.17;2.23;;;;;;;7.57;69.28;99569.31;10485458;28;20669;-82
2023/01/13 12:33:02;;;;;;;6.87;2.00;;;;;;;7.94;68.07;99548.59;10471859;28;20211;-82
2023/01/13 12:38:27;;;;;;;12.30;2.80;;;;;;;8.15;68.85;99569.31;10484193;28;20223;-82
2023/01/13 12:48:53;;;;;;;11.87;2.27;;;;;;;8.41;70.25;99581.47;10487822;28;20244;-83
2023/01/13 12:53:55;;;;;;;14.73;2.07;;;;;;;8.28;70.94;99587.97;10502960;28;20207;-83
2023/01/13 12:59:17;;;;;;;10.70;2.43;;;;;;;8.32;69.13;99582.56;10485332;28;20576;-83
2023/01/13 13:04:40;;;;;;;8.10;1.63;;;;;;;8.00;69.23;99587.22;10502821;28;20195;-83
2023/01/13 13:09:47;;;;;;;12.20;2.07;;;;;;;8.44;67.98;99575.25;10503413;28;20187;-82
2023/01/13 13:14:49;;;;;;;10.13;1.90;;;;;;;8.04;69.08;99593.84;10490086;28;20235;-82
2023/01/13 13:19:52;;;;;;;7.93;1.40;;;;;;;8.07;66.89;99603.56;10483673;28;20187;-82
2023/01/13 13:24:54;;;;;;;5.87;1.53;;;;;;;7.78;67.53;99613.16;10468519;28;20195;-81
2023/01/13 13:30:17;;;;;;;6.30;1.03;;;;;;;8.29;66.78;99617.56;10477520;28;20192;-84
2023/01/13 13:35:56;;;;;;;7.87;1.50;;;;;;;8.20;66.58;99630.66;10491403;28;20313;-82
2023/01/13 13:46:47;;;;;;;7.73;1.13;;;;;;;8.05;66.26;99639.34;10473064;28;20249;-82
2023/01/13 13:52:09;;;;;;;5.97;1.63;;;;;;;8.58;64.81;99640.28;10484135;28;20218;-83
2023/01/13 13:57:16;;;;;;;8.50;1.00;;;;;;;8.43;64.93;99654.66;10464523;28;20546;-81
2023/01/13 14:02:30;;;;;;;7.93;1.30;;;;;;;7.54;66.84;99674.00;10494125;28;20200;-81
2023/01/13 14:07:44;;;;;;;9.47;2.07;;;;;;;7.83;66.13;99694.03;10466606;28;20217;-82
2023/01/13 14:12:46;;;;;;;4.20;1.33;;;;;;;8.79;63.48;99693.69;10486575;28;20249;-81
2023/01/13 14:17:48;;;;;;;11.23;1.90;;;;;;;8.35;66.05;99716.91;10479338;28;20238;-82
2023/01/13 14:22:52;;;;;;;6.93;1.60;;;;;;;7.98;65.45;99706.84;10467483;28;20622;-81
2023/01/13 14:27:55;;;;;;;7.37;1.60;;;;;;;8.58;64.06;99731.72;10468839;28;20607;-82
2023/01/13 14:32:57;;;;;;;12.73;2.47;;;;;;;8.26;65.24;99732.75;10466113;28;20200;-81
2023/01/13 14:38:03;;;;;;;6.47;1.53;;;;;;;8.15;64.53;99750.88;10480946;28;20265;-81
2023/01/13 14:43:11;;;;;;;9.70;1.90;;;;;;;8.11;65.64;99755.44;10479979;28;20199;-81
2023/01/13 14:48:13;;;;;;;8.10;1.90;;;;;;;8.16;65.16;99758.13;10485050;28;20534;-81
2023/01/13 14:53:35;;;;;;;8.17;1.80;;;;;;;7.69;69.47;99768.59;10476573;28;20279;-82
2023/01/13 14:58:37;;;;;;;11.13;2.00;;;;;;;7.84;68.62;99776.66;10476770;28;20244;-81
2023/01/13 15:03:40;;;;;;;8.87;2.40;;;;;;;7.71;68.67;99785.88;10463352;28;20257;-82
2023/01/13 15:08:43;;;;;;;7.77;2.30;;;;;;;7.98;69.32;99795.38;10476305;28;20196;-82
2023/01/13 15:13:49;;;;;;;9.43;2.37;;;;;;;7.87;68.90;99801.16;10478520;28;20606;-81
2023/01/13 15:18:55;;;;;;;9.07;2.33;;;;;;;7.85;70.37;99817.38;10480371;28;20765;-80
2023/01/13 15:23:59;;;;;;;10.47;2.20;;;;;;;7.72;71.03;99832.16;10480564;28;20244;-82
2023/01/13 15:29:10;;;;;;;13.67;2.40;;;;;;;7.79;71.31;99849.34;10466548;28;20226;-80
2023/01/13 15:34:12;;;;;;;8.47;2.40;;;;;;;8.10;71.31;99849.56;10459010;28;20254;-82
2023/01/13 15:39:14;;;;;;;8.87;2.30;;;;;;;8.27;71.57;99860.13;10473424;28;20258;-81
2023/01/13 15:49:45;;;;;;;9.57;1.77;;;;;;;7.96;72.44;99871.09;10474894;28;20291;-80
2023/01/13 15:54:47;;;;;;;6.97;2.37;;;;;;;6.98;75.89;99878.66;10498330;28;20962;-81
2023/01/13 15:59:52;;;;;;;8.90;2.67;;;;;;;7.13;75.50;99891.53;10473954;28;20239;-81
2023/01/13 16:04:54;;;;;;;9.60;3.00;;;;;;;7.52;73.53;99885.56;10456225;28;20758;-81
2023/01/13 16:09:56;;;;;;;9.00;2.67;;;;;;;7.01;75.89;99900.38;10474588;28;20355;-81
2023/01/13 16:14:59;;;;;;;10.97;2.53;;;;;;;6.76;77.19;99895.19;10489414;28;20246;-85
2023/01/13 16:20:02;;;;;;;8.53;2.43;;;;;;;7.95;72.74;99902.09;10484011;28;20550;-81
2023/01/13 16:25:05;;;;;;;10.90;2.97;;;;;;;7.57;72.87;99905.03;10479424;28;20215;-82
2023/01/13 16:30:21;;;;;;;8.67;2.40;;;;;;;8.44;69.08;99905.03;10454966;28;20316;-82
2023/01/13 16:35:24;;;;;;;11.93;2.57;;;;;;;7.38;72.96;99915.41;10465481;28;20280;-85
2023/01/13 16:40:29;;;;;;;10.53;2.03;;;;;;;7.45;72.27;99915.84;10482012;28;20219;-81
2023/01/13 16:45:33;;;;;;;9.43;1.60;;;;;;;8.06;68.79;99925.91;10469552;28;20219;-82
2023/01/13 16:50:39;;;;;;;5.97;2.30;;;;;;;7.82;69.41;99932.50;10469926;28;20257;-81
2023/01/13 16:55:42;;;;;;;10.13;1.80;;;;;;;7.93;69.03;99944.31;10468216;28;20284;-84
2023/01/13 17:00:47;;;;;;;7.93;1.93;;;;;;;7.59;69.21;99961.38;10467940;28;20552;-83
2023/01/13 17:05:50;;;;;;;8.83;1.93;;;;;;;7.84;70.10;99969.31;10475216;28;20272;-82
2023/01/13 17:10:52;;;;;;;6.03;1.63;;;;;;;8.07;68.00;99972.25;10469620;28;20238;-82
2023/01/13 17:15:54;;;;;;;11.23;2.60;;;;;;;7.71;69.67;99986.84;10478252;28;20243;-81
2023/01/13 17:20:57;;;;;;;14.00;2.50;;;;;;;7.81;70.27;99980.25;10470938;28;20235;-80
2023/01/13 17:25:59;;;;;;;8.80;2.70;;;;;;;8.26;69.09;100000.97;10465668;28;20222;-80
2023/01/13 17:31:01;;;;;;;11.37;2.50;;;;;;;7.50;71.85;100007.84;10465690;28;20296;-83
2023/01/13 17:36:04;;;;;;;11.50;2.70;;;;;;;8.19;70.84;100000.56;10472553;28;20255;-82
2023/01/13 17:41:06;;;;;;;14.53;2.70;;;;;;;7.75;72.52;100007.44;10470880;28;20226;-81
2023/01/13 17:46:10;;;;;;;12.73;2.63;;;;;;;7.87;72.59;100016.16;10462684;28;20624;-82
2023/01/13 17:51:13;;;;;;;12.10;2.90;;;;;;;7.27;73.71;100014.34;10460767;28;20231;-83
2023/01/13 17:56:17;;;;;;;13.97;2.70;;;;;;;7.43;71.23;100036.13;10466865;28;20327;-82
2023/01/13 18:01:21;;;;;;;8.03;1.90;;;;;;;7.94;68.38;100029.75;10465271;28;20256;-82
2023/01/13 18:06:23;;;;;;;11.00;2.10;;;;;;;8.53;65.64;100037.34;10438999;28;20242;-85
2023/01/13 18:11:26;;;;;;;10.03;2.07;;;;;;;7.67;69.58;100047.22;10477647;28;20218;-82
2023/01/13 18:16:29;;;;;;;7.20;1.67;;;;;;;7.93;69.27;100049.59;10474638;28;20254;-81
2023/01/13 18:32:13;;;;;;;13.33;2.33;;;;;;;8.16;68.59;100059.84;10453603;28;20230;-81
2023/01/13 18:37:16;;;;;;;11.80;2.10;;;;;;;8.20;66.18;100078.47;10473309;28;20383;-87
2023/01/13 18:47:41;;;;;;;9.80;2.00;;;;;;;8.34;65.21;100086.06;10473719;28;20219;-81
2023/01/13 18:52:43;;;;;;;10.10;2.20;;;;;;;8.16;64.86;100077.44;10471143;28;20228;-82
2023/01/13 18:57:46;;;;;;;7.50;1.70;;;;;;;8.18;65.40;100086.34;10450931;28;20257;-85
2023/01/13 19:02:51;;;;;;;7.23;1.80;;;;;;;7.94;65.57;100101.53;10467182;28;20575;-81
2023/01/13 19:08:07;;;;;;;8.83;2.17;;;;;;;8.05;64.73;100114.19;10457232;28;20596;-82
2023/01/13 19:13:09;;;;;;;5.47;1.00;;;;;;;7.52;67.07;100106.06;10476849;28;20267;-82
2023/01/13 19:18:13;;;;;;;13.40;2.70;;;;;;;7.63;67.01;100115.09;10462167;28;20250;-83
2023/01/13 19:23:17;;;;;;;8.07;1.90;;;;;;;8.44;63.98;100120.25;10485705;28;20195;-85
2023/01/13 19:28:20;;;;;;;10.60;2.27;;;;;;;8.06;64.25;100121.44;10488228;28;20191;-84
2023/01/13 19:33:22;;;;;;;9.73;2.17;;;;;;;7.88;64.75;100129.50;10482398;28;20284;-80
2023/01/13 19:38:26;;;;;;;8.80;1.73;;;;;;;7.82;65.38;100130.75;10484340;28;20372;-81
2023/01/13 19:48:48;;;;;;;7.70;2.10;;;;;;;7.94;63.69;100149.00;10490759;28;20215;-84
2023/01/13 19:53:50;;;;;;;9.97;2.37;;;;;;;8.32;62.63;100147.03;10480585;28;20263;-81
2023/01/13 19:58:52;;;;;;;11.43;2.30;;;;;;;8.30;62.67;100144.53;10476904;28;20215;-84
2023/01/13 20:04:01;;;;;;;9.23;1.77;;;;;;;8.06;63.21;100160.53;10509966;28;20207;-82
2023/01/13 20:09:03;;;;;;;10.67;1.53;;;;;;;8.32;61.28;100172.19;10485235;28;20219;-81
2023/01/13 20:14:08;;;;;;;9.50;1.70;;;;;;;8.66;60.47;100185.84;10461861;28;20582;-82
2023/01/13 20:19:10;;;;;;;6.17;1.20;;;;;;;8.81;59.94;100193.97;10492533;28;20239;-82
2023/01/13 20:24:16;;;;;;;10.80;2.00;;;;;;;8.68;60.60;100205.94;10479316;28;20227;-84
2023/01/13 20:29:19;;;;;;;7.33;1.53;;;;;;;8.66;61.84;100205.41;10496377;28;20233;-83
2023/01/13 20:34:21;;;;;;;12.40;2.33;;;;;;;9.49;58.90;100204.44;10482938;28;20218;-82
2023/01/13 20:39:25;;;;;;;10.33;2.10;;;;;;;8.62;60.54;100238.78;10484614;28;20243;-85
2023/01/13 20:44:27;;;;;;;11.93;2.03;;;;;;;8.73;60.16;100219.84;10495075;28;20244;-83
2023/01/13 20:49:30;;;;;;;8.77;1.93;;;;;;;8.82;59.70;100223.59;10483324;28;20274;-84
2023/01/13 20:54:32;;;;;;;8.80;2.03;;;;;;;8.30;59.88;100245.13;10457530;28;20215;-84
2023/01/13 20:59:36;;;;;;;6.33;1.77;;;;;;;8.66;58.13;100237.00;10470432;28;20250;-83
2023/01/13 21:04:38;;;;;;;12.60;2.10;;;;;;;8.77;59.28;100260.03;10455826;28;20530;-84
2023/01/13 21:09:40;;;;;;;8.43;1.37;;;;;;;8.70;60.03;100260.44;10470260;28;20207;-83
2023/01/13 21:20:07;;;;;;;18.67;2.50;;;;;;;8.36;60.58;100266.28;10475129;28;20269;-83
2023/01/13 21:25:11;;;;;;;11.97;2.37;;;;;;;8.12;60.78;100273.84;10471712;28;20211;-83
2023/01/13 21:30:14;;;;;;;10.60;2.20;;;;;;;8.90;59.12;100270.44;10466542;28;20231;-83
2023/01/13 21:35:16;;;;;;;11.07;2.37;;;;;;;8.92;59.14;100274.59;10461676;28;20303;-83
2023/01/13 21:40:19;;;;;;;8.63;1.80;;;;;;;8.97;59.65;100270.06;10477971;28;20220;-83
2023/01/13 21:50:42;;;;;;;12.27;2.40;;;;;;;8.28;61.89;100292.09;10462949;28;20674;-82
2023/01/13 21:55:44;;;;;;;12.57;2.23;;;;;;;8.55;62.32;100295.06;10477197;28;20242;-83
2023/01/13 22:00:46;;;;;;;11.27;2.30;;;;;;;8.38;62.13;100303.13;10472762;28;20250;-82
2023/01/13 22:05:54;;;;;;;12.93;2.10;;;;;;;8.40;62.41;100305.63;10474223;28;20268;-83
2023/01/13 22:11:01;;;;;;;17.10;2.57;;;;;;;8.78;60.71;100309.22;10465110;28;20674;-82
2023/01/13 22:16:03;;;;;;;8.40;2.23;;;;;;;8.44;61.31;100323.47;10453117;28;20268;-82
2023/01/13 22:21:06;;;;;;;16.00;3.00;;;;;;;7.98;62.52;100321.28;10463954;28;20334;-82
2023/01/13 22:26:09;;;;;;;11.60;2.80;;;;;;;8.22;64.48;100321.25;10469903;28;20516;-82
2023/01/13 22:31:13;;;;;;;13.43;2.40;;;;;;;8.07;64.50;100329.81;10464448;28;20268;-84
2023/01/13 22:36:16;;;;;;;13.47;2.67;;;;;;;8.58;63.22;100329.97;10456696;28;20671;-83
2023/01/13 22:41:18;;;;;;;17.60;2.97;;;;;;;8.42;63.76;100339.69;10468063;28;20279;-83
2023/01/13 22:46:21;;;;;;;9.73;1.83;;;;;;;7.98;64.80;100345.56;10491023;28;20293;-81
2023/01/13 22:51:25;;;;;;;15.90;3.13;;;;;;;8.26;63.52;100344.66;10484123;28;20570;-81
2023/01/13 22:56:27;;;;;;;14.40;3.03;;;;;;;7.99;65.15;100347.22;10478758;28;20250;-81
2023/01/13 23:01:32;;;;;;;12.40;2.63;;;;;;;8.01;64.88;100367.31;10468418;28;20289;-82
2023/01/13 23:06:34;;;;;;;12.50;3.20;;;;;;;8.74;62.30;100366.94;10491738;28;20227;-83
2023/01/13 23:11:36;;;;;;;18.37;3.40;;;;;;;8.08;63.76;100382.59;10491141;28;20203;-83
2023/01/13 23:16:39;;;;;;;21.47;2.93;;;;;;;8.15;64.36;100387.84;10463548;28;20312;-86
2023/01/13 23:21:42;;;;;;;17.43;3.43;;;;;;;7.74;65.96;100382.69;10472679;28;20203;-82
2023/01/13 23:26:44;;;;;;;13.47;3.53;;;;;;;8.30;63.58;100376.47;10474240;28;20543;-83
2023/01/13 23:31:46;;;;;;;15.57;3.23;;;;;;;8.20;63.42;100390.59;10462442;28;20293;-82
2023/01/13 23:36:48;;;;;;;16.87;3.77;;;;;;;8.44;62.74;100388.59;10474236;28;20223;-82
2023/01/13 23:41:50;;;;;;;21.03;4.17;;;;;;;8.55;62.75;100392.06;10470368;28;20284;-83
2023/01/13 23:46:53;;;;;;;13.37;3.23;;;;;;;8.08;63.79;100395.72;10448548;28;20280;-83
2023/01/13 23:51:55;;;;;;;11.87;3.40;;;;;;;8.53;62.95;100397.97;10462008;28;20200;-82
2023/01/13 23:56:58;;;;;;;13.13;2.80;;;;;;;8.43;62.59;100398.09;10492769;28;20258;-82
